createdAt,value
2019-02-08T00:01:45.109Z,21.55
2019-02-08T00:04:11.444Z,21.62
2019-02-08T00:06:37.813Z,21.61
2019-02-08T00:09:04.182Z,21.58
2019-02-08T00:11:30.512Z,21.61
2019-02-08T00:13:56.842Z,21.57
2019-02-08T00:16:23.250Z,21.58
2019-02-08T00:18:49.581Z,21.57
2019-02-08T00:21:16.121Z,21.55
2019-02-08T00:23:42.454Z,21.57
2019-02-08T00:26:08.777Z,21.54
2019-02-08T00:28:35.114Z,21.51
2019-02-08T00:31:01.444Z,21.52
2019-02-08T00:33:27.768Z,21.52
2019-02-08T00:35:54.140Z,21.52
2019-02-08T00:38:20.466Z,21.53
2019-02-08T00:40:46.828Z,21.51
2019-02-08T00:43:13.158Z,21.48
2019-02-08T00:45:39.502Z,21.53
2019-02-08T00:48:05.841Z,21.44
2019-02-08T00:50:32.184Z,21.48
2019-02-08T00:52:58.567Z,21.49
2019-02-08T00:55:24.912Z,21.49
2019-02-08T00:57:51.227Z,21.47
2019-02-08T01:00:17.557Z,21.46
2019-02-08T01:02:43.916Z,21.54
2019-02-08T01:05:10.241Z,21.65
2019-02-08T01:07:36.569Z,21.51
2019-02-08T01:10:02.904Z,21.53
2019-02-08T01:12:29.301Z,21.49
2019-02-08T01:14:55.694Z,21.53
2019-02-08T01:17:22.014Z,21.51
2019-02-08T01:19:48.379Z,21.60
2019-02-08T01:22:14.748Z,21.54
2019-02-08T01:24:41.172Z,21.55
2019-02-08T01:27:07.479Z,21.60
2019-02-08T01:29:33.854Z,21.59
2019-02-08T01:32:00.184Z,21.60
2019-02-08T01:34:26.516Z,21.66
2019-02-08T01:36:52.838Z,21.65
2019-02-08T01:39:19.171Z,21.67
2019-02-08T01:41:45.606Z,21.66
2019-02-08T01:44:11.976Z,21.65
2019-02-08T01:46:38.390Z,21.70
2019-02-08T01:49:04.689Z,21.70
2019-02-08T01:51:31.025Z,21.75
2019-02-08T01:53:57.389Z,21.77
2019-02-08T01:56:23.720Z,21.76
2019-02-08T01:58:50.039Z,21.80
2019-02-08T02:01:16.373Z,21.74
2019-02-08T02:03:42.693Z,21.80
2019-02-08T02:06:09.056Z,21.80
2019-02-08T02:08:35.379Z,21.83
2019-02-08T02:11:01.706Z,21.94
2019-02-08T02:13:28.033Z,21.89
2019-02-08T02:15:54.377Z,21.83
2019-02-08T02:18:20.703Z,21.84
2019-02-08T02:20:47.052Z,21.87
2019-02-08T02:23:13.505Z,21.91
2019-02-08T02:25:39.820Z,21.94
2019-02-08T02:28:06.162Z,22.02
2019-02-08T02:30:32.499Z,22.01
2019-02-08T02:32:58.844Z,22.05
2019-02-08T02:35:25.155Z,22.06
2019-02-08T02:37:51.548Z,22.07
2019-02-08T02:40:17.880Z,22.10
2019-02-08T02:42:44.226Z,22.11
2019-02-08T02:45:10.570Z,22.14
2019-02-08T02:47:36.911Z,22.17
2019-02-08T02:50:03.239Z,22.16
2019-02-08T02:52:29.589Z,22.16
2019-02-08T02:54:55.920Z,22.21
2019-02-08T02:57:22.257Z,22.21
2019-02-08T02:59:48.603Z,22.19
2019-02-08T03:02:14.918Z,22.17
2019-02-08T03:04:41.247Z,22.23
2019-02-08T03:07:07.575Z,22.24
2019-02-08T03:09:33.917Z,22.24
2019-02-08T03:12:00.296Z,22.23
2019-02-08T03:14:26.660Z,22.27
2019-02-08T03:16:52.991Z,22.27
2019-02-08T03:19:19.334Z,22.31
2019-02-08T03:21:45.660Z,22.28
2019-02-08T03:24:13.160Z,22.32
2019-02-08T03:26:38.354Z,22.31
2019-02-08T03:29:04.840Z,22.34
2019-02-08T03:31:31.192Z,22.36
2019-02-08T03:33:57.493Z,22.38
2019-02-08T03:36:23.866Z,22.38
2019-02-08T03:38:50.193Z,22.38
2019-02-08T03:41:16.523Z,22.36
2019-02-08T03:43:42.875Z,22.37
2019-02-08T03:46:09.205Z,22.37
2019-02-08T03:48:35.590Z,22.39
2019-02-08T03:51:01.945Z,22.38
2019-02-08T03:53:28.327Z,22.42
2019-02-08T03:55:58.505Z,22.39
2019-02-08T03:58:20.965Z,22.47
2019-02-08T04:00:47.293Z,22.44
2019-02-08T04:03:13.630Z,22.49
2019-02-08T04:05:39.962Z,22.49
2019-02-08T04:08:06.303Z,22.49
2019-02-08T04:10:32.652Z,22.57
2019-02-08T04:12:58.982Z,22.57
2019-02-08T04:15:25.365Z,22.64
2019-02-08T04:17:51.722Z,22.67
2019-02-08T04:20:18.077Z,22.68
2019-02-08T04:22:44.422Z,22.72
2019-02-08T04:25:10.778Z,22.77
2019-02-08T04:27:37.108Z,22.81
2019-02-08T04:30:03.440Z,22.79
2019-02-08T04:32:29.793Z,22.94
2019-02-08T04:34:56.178Z,22.81
2019-02-08T04:37:22.517Z,22.83
2019-02-08T04:39:48.854Z,22.82
2019-02-08T04:42:15.401Z,22.82
2019-02-08T04:47:15.619Z,22.82
2019-02-08T04:49:41.938Z,22.95
2019-02-08T04:52:08.272Z,22.99
2019-02-08T04:54:38.394Z,22.94
2019-02-08T04:57:00.940Z,23.03
2019-02-08T04:59:27.266Z,23.05
2019-02-08T05:01:53.596Z,23.02
2019-02-08T05:04:19.984Z,23.06
2019-02-08T05:06:46.374Z,23.09
2019-02-08T05:09:12.719Z,23.07
2019-02-08T05:11:39.066Z,23.05
2019-02-08T05:14:05.399Z,23.05
2019-02-08T05:16:31.893Z,23.01
2019-02-08T05:18:58.221Z,23.05
2019-02-08T05:21:24.581Z,23.06
2019-02-08T05:23:50.881Z,23.02
2019-02-08T05:26:17.237Z,23.02
2019-02-08T05:28:43.587Z,23.00
2019-02-08T05:31:09.916Z,22.98
2019-02-08T05:33:36.259Z,22.98
2019-02-08T05:36:02.666Z,22.82
2019-02-08T05:38:29.030Z,22.83
2019-02-08T05:40:55.439Z,22.91
2019-02-08T05:43:21.708Z,22.83
2019-02-08T05:45:48.040Z,22.81
2019-02-08T05:48:14.373Z,22.77
2019-02-08T05:50:40.700Z,22.70
